sensor_id;sensor_type;location;lat;lon;timestamp;noise_LAeq;noise_LA_min;noise_LA_max;noise_LA01;noise_LA95
81666;Laerm;71083;51.796;10.952;2023-09-12T00:00:44;31.23;29.17;34.30;;
81666;Laerm;71083;51.796;10.952;2023-09-12T00:03:10;53.83;29.76;71.30;;
81666;Laerm;71083;51.796;10.952;2023-09-12T00:05:36;53.45;29.40;70.66;;
81666;Laerm;71083;51.796;10.952;2023-09-12T00:08:01;33.84;29.45;42.61;;
81666;Laerm;71083;51.796;10.952;2023-09-12T00:10:28;30.52;28.84;33.02;;
81666;Laerm;71083;51.796;10.952;2023-09-12T00:12:54;61.12;29.27;78.09;;
81666;Laerm;71083;51.796;10.952;2023-09-12T00:15:20;33.22;29.09;41.00;;
81666;Laerm;71083;51.796;10.952;2023-09-12T00:17:45;32.68;28.99;38.72;;
81666;Laerm;71083;51.796;10.952;2023-09-12T00:20:10;30.02;28.55;32.33;;
81666;Laerm;71083;51.796;10.952;2023-09-12T00:22:36;37.50;28.80;51.72;;
81666;Laerm;71083;51.796;10.952;2023-09-12T00:25:01;51.05;29.23;67.02;;
81666;Laerm;71083;51.796;10.952;2023-09-12T00:27:27;33.18;29.33;50.85;;
81666;Laerm;71083;51.796;10.952;2023-09-12T00:29:52;46.76;28.86;60.63;;
81666;Laerm;71083;51.796;10.952;2023-09-12T00:32:17;31.65;30.25;37.98;;
81666;Laerm;71083;51.796;10.952;2023-09-12T00:34:43;31.59;30.13;33.83;;
81666;Laerm;71083;51.796;10.952;2023-09-12T00:37:08;31.30;29.91;33.10;;
81666;Laerm;71083;51.796;10.952;2023-09-12T00:39:33;34.56;29.72;47.67;;
81666;Laerm;71083;51.796;10.952;2023-09-12T00:41:59;30.03;28.42;46.44;;
81666;Laerm;71083;51.796;10.952;2023-09-12T00:44:24;41.25;29.17;54.86;;
81666;Laerm;71083;51.796;10.952;2023-09-12T00:46:49;52.61;28.64;69.85;;
81666;Laerm;71083;51.796;10.952;2023-09-12T00:49:15;52.20;28.52;68.36;;
81666;Laerm;71083;51.796;10.952;2023-09-12T00:51:41;58.74;29.30;74.07;;
81666;Laerm;71083;51.796;10.952;2023-09-12T00:54:07;30.80;28.43;36.56;;
81666;Laerm;71083;51.796;10.952;2023-09-12T00:56:32;31.49;29.11;36.37;;
81666;Laerm;71083;51.796;10.952;2023-09-12T00:58:58;55.00;28.31;70.52;;
81666;Laerm;71083;51.796;10.952;2023-09-12T01:01:24;29.24;28.12;32.82;;
81666;Laerm;71083;51.796;10.952;2023-09-12T01:03:49;28.71;28.03;30.11;;
81666;Laerm;71083;51.796;10.952;2023-09-12T01:06:14;28.66;27.87;33.38;;
81666;Laerm;71083;51.796;10.952;2023-09-12T01:08:42;51.26;28.18;67.52;;
81666;Laerm;71083;51.796;10.952;2023-09-12T01:11:07;36.26;28.14;48.80;;
81666;Laerm;71083;51.796;10.952;2023-09-12T01:13:33;29.06;28.21;33.63;;
81666;Laerm;71083;51.796;10.952;2023-09-12T01:15:58;53.60;28.24;70.49;;
81666;Laerm;71083;51.796;10.952;2023-09-12T01:18:24;30.69;28.65;38.78;;
81666;Laerm;71083;51.796;10.952;2023-09-12T01:28:54;55.29;29.00;73.60;;
81666;Laerm;71083;51.796;10.952;2023-09-12T01:31:20;60.32;29.15;77.94;;
81666;Laerm;71083;51.796;10.952;2023-09-12T01:33:46;30.81;28.65;37.57;;
81666;Laerm;71083;51.796;10.952;2023-09-12T01:36:11;30.44;28.98;33.27;;
81666;Laerm;71083;51.796;10.952;2023-09-12T01:38:37;52.53;29.15;67.59;;
81666;Laerm;71083;51.796;10.952;2023-09-12T01:41:02;33.14;29.38;42.29;;
81666;Laerm;71083;51.796;10.952;2023-09-12T01:43:28;53.85;30.14;70.37;;
81666;Laerm;71083;51.796;10.952;2023-09-12T01:45:55;56.40;29.74;73.27;;
81666;Laerm;71083;51.796;10.952;2023-09-12T01:48:22;55.26;29.01;70.31;;
81666;Laerm;71083;51.796;10.952;2023-09-12T01:50:48;36.24;28.74;49.96;;
81666;Laerm;71083;51.796;10.952;2023-09-12T01:53:14;59.43;30.74;71.32;;
81666;Laerm;71083;51.796;10.952;2023-09-12T01:55:41;33.38;30.17;40.12;;
81666;Laerm;71083;51.796;10.952;2023-09-12T01:58:07;50.90;29.29;66.60;;
81666;Laerm;71083;51.796;10.952;2023-09-12T02:00:33;31.86;28.85;40.99;;
81666;Laerm;71083;51.796;10.952;2023-09-12T02:02:58;31.47;29.01;43.58;;
81666;Laerm;71083;51.796;10.952;2023-09-12T02:05:24;59.92;29.56;76.98;;
81666;Laerm;71083;51.796;10.952;2023-09-12T02:07:49;60.34;30.15;77.54;;
81666;Laerm;71083;51.796;10.952;2023-09-12T02:10:14;52.34;29.97;68.12;;
81666;Laerm;71083;51.796;10.952;2023-09-12T02:12:40;61.92;35.03;77.71;;
81666;Laerm;71083;51.796;10.952;2023-09-12T02:15:06;54.27;30.84;69.83;;
81666;Laerm;71083;51.796;10.952;2023-09-12T02:17:31;36.71;30.62;46.50;;
81666;Laerm;71083;51.796;10.952;2023-09-12T02:19:57;48.98;29.69;65.84;;
81666;Laerm;71083;51.796;10.952;2023-09-12T02:22:22;55.48;31.37;69.15;;
81666;Laerm;71083;51.796;10.952;2023-09-12T02:24:47;60.37;29.43;73.85;;
81666;Laerm;71083;51.796;10.952;2023-09-12T02:27:13;51.27;28.76;67.60;;
81666;Laerm;71083;51.796;10.952;2023-09-12T02:29:39;53.75;29.81;72.08;;
81666;Laerm;71083;51.796;10.952;2023-09-12T02:32:04;60.70;31.91;72.99;;
81666;Laerm;71083;51.796;10.952;2023-09-12T02:34:30;55.94;29.73;67.27;;
81666;Laerm;71083;51.796;10.952;2023-09-12T02:36:55;60.74;30.77;78.80;;
81666;Laerm;71083;51.796;10.952;2023-09-12T02:39:20;62.67;33.37;77.92;;
81666;Laerm;71083;51.796;10.952;2023-09-12T02:41:46;60.27;34.12;72.29;;
81666;Laerm;71083;51.796;10.952;2023-09-12T02:44:11;63.06;31.55;79.26;;
81666;Laerm;71083;51.796;10.952;2023-09-12T02:46:36;56.78;32.24;71.40;;
81666;Laerm;71083;51.796;10.952;2023-09-12T02:49:02;62.33;33.00;78.97;;
81666;Laerm;71083;51.796;10.952;2023-09-12T02:51:27;62.99;33.28;78.06;;
81666;Laerm;71083;51.796;10.952;2023-09-12T02:53:53;63.44;32.40;75.91;;
81666;Laerm;71083;51.796;10.952;2023-09-12T02:56:18;59.97;33.39;76.85;;
81666;Laerm;71083;51.796;10.952;2023-09-12T02:58:46;64.04;41.61;80.23;;
81666;Laerm;71083;51.796;10.952;2023-09-12T03:01:18;62.41;33.45;75.44;;
81666;Laerm;71083;51.796;10.952;2023-09-12T03:03:47;56.22;36.43;68.95;;
81666;Laerm;71083;51.796;10.952;2023-09-12T03:06:13;57.44;36.90;69.51;;
81666;Laerm;71083;51.796;10.952;2023-09-12T03:08:39;61.93;34.73;76.38;;
81666;Laerm;71083;51.796;10.952;2023-09-12T03:11:04;58.49;36.10;68.55;;
81666;Laerm;71083;51.796;10.952;2023-09-12T03:13:32;58.65;36.16;71.23;;
81666;Laerm;71083;51.796;10.952;2023-09-12T03:15:57;62.28;39.31;73.14;;
81666;Laerm;71083;51.796;10.952;2023-09-12T03:18:23;65.38;43.40;86.11;;
81666;Laerm;71083;51.796;10.952;2023-09-12T03:20:48;69.13;57.98;74.99;;
81666;Laerm;71083;51.796;10.952;2023-09-12T03:23:13;63.50;44.88;74.52;;
81666;Laerm;71083;51.796;10.952;2023-09-12T03:25:39;63.25;37.47;73.55;;
81666;Laerm;71083;51.796;10.952;2023-09-12T03:28:04;62.31;37.62;75.27;;
81666;Laerm;71083;51.796;10.952;2023-09-12T03:30:31;63.55;47.00;73.48;;
81666;Laerm;71083;51.796;10.952;2023-09-12T03:32:56;64.76;40.29;74.03;;
81666;Laerm;71083;51.796;10.952;2023-09-12T03:35:21;63.61;41.43;74.42;;
81666;Laerm;71083;51.796;10.952;2023-09-12T03:37:47;63.84;40.73;74.03;;
81666;Laerm;71083;51.796;10.952;2023-09-12T03:40:12;65.45;51.44;73.26;;
81666;Laerm;71083;51.796;10.952;2023-09-12T03:42:37;61.91;38.28;71.93;;
81666;Laerm;71083;51.796;10.952;2023-09-12T03:45:03;66.79;47.72;78.12;;
81666;Laerm;71083;51.796;10.952;2023-09-12T03:47:28;66.08;42.72;74.94;;
81666;Laerm;71083;51.796;10.952;2023-09-12T03:49:54;67.10;51.86;75.31;;
81666;Laerm;71083;51.796;10.952;2023-09-12T03:52:19;63.29;45.84;73.26;;
81666;Laerm;71083;51.796;10.952;2023-09-12T03:54:44;73.18;58.35;82.21;;
81666;Laerm;71083;51.796;10.952;2023-09-12T03:57:10;65.47;36.34;74.78;;
81666;Laerm;71083;51.796;10.952;2023-09-12T03:59:35;61.31;37.79;72.99;;
81666;Laerm;71083;51.796;10.952;2023-09-12T04:02:01;64.59;36.04;75.20;;
81666;Laerm;71083;51.796;10.952;2023-09-12T04:04:28;63.83;39.57;76.33;;
81666;Laerm;71083;51.796;10.952;2023-09-12T04:06:53;62.69;38.20;76.09;;
81666;Laerm;71083;51.796;10.952;2023-09-12T04:09:19;63.68;39.08;73.16;;
81666;Laerm;71083;51.796;10.952;2023-09-12T04:11:45;62.51;46.37;72.74;;
81666;Laerm;71083;51.796;10.952;2023-09-12T04:14:10;64.15;44.24;75.17;;
81666;Laerm;71083;51.796;10.952;2023-09-12T04:16:36;65.50;40.55;74.11;;
81666;Laerm;71083;51.796;10.952;2023-09-12T04:19:01;64.10;45.57;74.21;;
81666;Laerm;71083;51.796;10.952;2023-09-12T04:21:26;67.53;50.10;77.33;;
81666;Laerm;71083;51.796;10.952;2023-09-12T04:23:52;63.32;43.73;71.63;;
81666;Laerm;71083;51.796;10.952;2023-09-12T04:26:17;65.09;44.01;75.57;;
81666;Laerm;71083;51.796;10.952;2023-09-12T04:28:42;65.66;48.47;80.62;;
81666;Laerm;71083;51.796;10.952;2023-09-12T04:31:08;71.96;44.09;95.05;;
81666;Laerm;71083;51.796;10.952;2023-09-12T04:33:34;67.20;43.13;80.80;;
81666;Laerm;71083;51.796;10.952;2023-09-12T04:36:02;66.36;55.08;74.70;;
81666;Laerm;71083;51.796;10.952;2023-09-12T04:38:27;68.48;46.92;80.79;;
81666;Laerm;71083;51.796;10.952;2023-09-12T04:40:56;65.85;46.63;75.13;;
81666;Laerm;71083;51.796;10.952;2023-09-12T04:43:22;66.79;43.61;80.98;;
81666;Laerm;71083;51.796;10.952;2023-09-12T04:45:48;67.44;54.34;79.00;;
81666;Laerm;71083;51.796;10.952;2023-09-12T04:48:13;67.33;56.29;77.95;;
81666;Laerm;71083;51.796;10.952;2023-09-12T04:50:41;67.21;45.58;79.76;;
81666;Laerm;71083;51.796;10.952;2023-09-12T04:53:07;68.33;48.15;79.73;;
81666;Laerm;71083;51.796;10.952;2023-09-12T04:55:34;67.78;48.81;77.08;;
81666;Laerm;71083;51.796;10.952;2023-09-12T04:58:00;65.53;46.26;74.65;;
81666;Laerm;71083;51.796;10.952;2023-09-12T05:00:25;68.10;50.95;76.02;;
81666;Laerm;71083;51.796;10.952;2023-09-12T05:02:51;67.53;48.53;81.73;;
81666;Laerm;71083;51.796;10.952;2023-09-12T05:05:16;68.41;39.46;82.38;;
81666;Laerm;71083;51.796;10.952;2023-09-12T05:07:41;72.30;50.36;84.73;;
81666;Laerm;71083;51.796;10.952;2023-09-12T05:10:07;66.09;46.10;76.22;;
81666;Laerm;71083;51.796;10.952;2023-09-12T05:12:32;68.53;49.80;79.35;;
81666;Laerm;71083;51.796;10.952;2023-09-12T05:14:57;68.63;43.10;79.21;;
81666;Laerm;71083;51.796;10.952;2023-09-12T05:17:23;67.26;53.89;76.65;;
81666;Laerm;71083;51.796;10.952;2023-09-12T05:19:48;69.66;52.57;81.64;;
81666;Laerm;71083;51.796;10.952;2023-09-12T05:22:13;65.55;51.62;74.32;;
81666;Laerm;71083;51.796;10.952;2023-09-12T05:24:39;68.53;51.00;79.41;;
81666;Laerm;71083;51.796;10.952;2023-09-12T05:27:04;68.79;53.46;77.29;;
81666;Laerm;71083;51.796;10.952;2023-09-12T05:29:30;66.44;48.77;78.56;;
81666;Laerm;71083;51.796;10.952;2023-09-12T05:31:56;78.22;53.67;97.51;;
81666;Laerm;71083;51.796;10.952;2023-09-12T05:34:21;65.55;54.48;72.77;;
81666;Laerm;71083;51.796;10.952;2023-09-12T05:36:47;67.72;50.49;78.48;;
81666;Laerm;71083;51.796;10.952;2023-09-12T05:39:12;78.16;49.98;97.57;;
81666;Laerm;71083;51.796;10.952;2023-09-12T05:41:39;66.06;46.55;75.41;;
81666;Laerm;71083;51.796;10.952;2023-09-12T05:44:04;67.94;50.73;78.89;;
81666;Laerm;71083;51.796;10.952;2023-09-12T05:46:29;67.02;51.95;74.42;;
81666;Laerm;71083;51.796;10.952;2023-09-12T05:48:55;65.23;48.05;73.84;;
81666;Laerm;71083;51.796;10.952;2023-09-12T05:51:20;68.24;44.27;80.18;;
81666;Laerm;71083;51.796;10.952;2023-09-12T05:53:45;67.40;43.89;78.93;;
81666;Laerm;71083;51.796;10.952;2023-09-12T05:56:11;69.30;48.14;79.22;;
81666;Laerm;71083;51.796;10.952;2023-09-12T05:58:36;67.41;48.77;81.63;;
81666;Laerm;71083;51.796;10.952;2023-09-12T06:01:06;67.84;47.11;75.02;;
81666;Laerm;71083;51.796;10.952;2023-09-12T06:03:32;64.66;47.79;73.18;;
81666;Laerm;71083;51.796;10.952;2023-09-12T06:05:57;65.55;50.09;76.28;;
81666;Laerm;71083;51.796;10.952;2023-09-12T06:08:22;68.93;50.97;80.93;;
81666;Laerm;71083;51.796;10.952;2023-09-12T06:10:48;66.17;47.71;79.73;;
81666;Laerm;71083;51.796;10.952;2023-09-12T06:13:14;65.90;45.70;76.26;;
81666;Laerm;71083;51.796;10.952;2023-09-12T06:15:39;67.65;49.64;76.95;;
81666;Laerm;71083;51.796;10.952;2023-09-12T06:18:06;67.63;50.13;81.29;;
81666;Laerm;71083;51.796;10.952;2023-09-12T06:20:31;65.74;46.52;75.68;;
81666;Laerm;71083;51.796;10.952;2023-09-12T06:22:56;66.73;49.49;78.04;;
81666;Laerm;71083;51.796;10.952;2023-09-12T06:25:22;68.07;45.93;79.96;;
81666;Laerm;71083;51.796;10.952;2023-09-12T06:27:47;68.77;44.65;83.28;;
81666;Laerm;71083;51.796;10.952;2023-09-12T06:30:14;66.78;46.01;75.33;;
81666;Laerm;71083;51.796;10.952;2023-09-12T06:32:39;66.56;40.20;81.04;;
81666;Laerm;71083;51.796;10.952;2023-09-12T06:35:05;66.47;43.82;78.35;;
81666;Laerm;71083;51.796;10.952;2023-09-12T06:37:30;65.57;44.88;76.33;;
81666;Laerm;71083;51.796;10.952;2023-09-12T06:39:56;66.53;43.87;81.11;;
81666;Laerm;71083;51.796;10.952;2023-09-12T06:42:21;67.20;43.95;78.44;;
81666;Laerm;71083;51.796;10.952;2023-09-12T06:44:47;65.75;42.53;77.81;;
81666;Laerm;71083;51.796;10.952;2023-09-12T06:47:12;66.70;48.85;76.09;;
81666;Laerm;71083;51.796;10.952;2023-09-12T06:49:38;67.70;49.70;79.19;;
81666;Laerm;71083;51.796;10.952;2023-09-12T06:52:03;68.15;49.15;81.49;;
81666;Laerm;71083;51.796;10.952;2023-09-12T06:54:29;68.22;48.07;76.80;;
81666;Laerm;71083;51.796;10.952;2023-09-12T06:56:54;67.20;51.82;76.82;;
81666;Laerm;71083;51.796;10.952;2023-09-12T06:59:20;65.46;46.33;74.62;;
81666;Laerm;71083;51.796;10.952;2023-09-12T07:01:45;65.90;47.00;77.18;;
81666;Laerm;71083;51.796;10.952;2023-09-12T07:04:10;68.08;50.44;82.15;;
81666;Laerm;71083;51.796;10.952;2023-09-12T07:06:36;66.92;44.12;79.08;;
81666;Laerm;71083;51.796;10.952;2023-09-12T07:09:01;66.40;45.45;76.76;;
81666;Laerm;71083;51.796;10.952;2023-09-12T07:11:28;66.49;45.83;76.01;;
81666;Laerm;71083;51.796;10.952;2023-09-12T07:13:53;66.31;44.64;76.51;;
81666;Laerm;71083;51.796;10.952;2023-09-12T07:16:18;65.18;48.78;73.78;;
81666;Laerm;71083;51.796;10.952;2023-09-12T07:18:45;63.78;44.77;71.32;;
81666;Laerm;71083;51.796;10.952;2023-09-12T07:21:11;68.31;50.67;80.12;;
81666;Laerm;71083;51.796;10.952;2023-09-12T07:23:37;65.43;47.51;73.90;;
81666;Laerm;71083;51.796;10.952;2023-09-12T07:26:02;66.62;46.61;75.24;;
81666;Laerm;71083;51.796;10.952;2023-09-12T07:28:29;66.12;53.60;76.94;;
81666;Laerm;71083;51.796;10.952;2023-09-12T07:30:55;67.01;50.57;74.18;;
81666;Laerm;71083;51.796;10.952;2023-09-12T07:33:20;66.73;46.30;79.81;;
81666;Laerm;71083;51.796;10.952;2023-09-12T07:35:46;66.14;50.20;74.13;;
81666;Laerm;71083;51.796;10.952;2023-09-12T07:38:12;66.24;47.04;73.75;;
81666;Laerm;71083;51.796;10.952;2023-09-12T07:40:37;67.91;54.06;78.54;;
81666;Laerm;71083;51.796;10.952;2023-09-12T07:43:03;66.09;48.09;72.90;;
81666;Laerm;71083;51.796;10.952;2023-09-12T07:45:28;69.50;54.74;80.42;;
81666;Laerm;71083;51.796;10.952;2023-09-12T07:47:54;65.55;52.80;76.91;;
81666;Laerm;71083;51.796;10.952;2023-09-12T07:50:20;67.46;56.25;74.56;;
81666;Laerm;71083;51.796;10.952;2023-09-12T07:52:45;69.64;52.37;82.64;;
81666;Laerm;71083;51.796;10.952;2023-09-12T07:55:10;67.07;51.95;82.21;;
81666;Laerm;71083;51.796;10.952;2023-09-12T07:57:36;69.72;54.80;81.80;;
81666;Laerm;71083;51.796;10.952;2023-09-12T08:00:02;68.63;51.58;83.25;;
81666;Laerm;71083;51.796;10.952;2023-09-12T08:02:29;67.95;53.43;78.72;;
81666;Laerm;71083;51.796;10.952;2023-09-12T08:04:55;69.24;52.09;86.41;;
81666;Laerm;71083;51.796;10.952;2023-09-12T08:07:20;66.00;50.17;74.28;;
81666;Laerm;71083;51.796;10.952;2023-09-12T08:12:14;66.92;53.64;80.60;;
81666;Laerm;71083;51.796;10.952;2023-09-12T08:14:39;66.07;45.81;81.84;;
81666;Laerm;71083;51.796;10.952;2023-09-12T08:17:05;69.70;50.31;80.31;;
81666;Laerm;71083;51.796;10.952;2023-09-12T08:19:30;66.67;46.34;75.22;;
81666;Laerm;71083;51.796;10.952;2023-09-12T08:21:55;66.78;51.19;76.45;;
81666;Laerm;71083;51.796;10.952;2023-09-12T08:24:21;67.96;48.66;74.35;;
81666;Laerm;71083;51.796;10.952;2023-09-12T08:26:46;68.44;52.23;78.71;;
81666;Laerm;71083;51.796;10.952;2023-09-12T08:29:11;66.46;41.59;74.37;;
81666;Laerm;71083;51.796;10.952;2023-09-12T08:31:37;66.00;46.82;77.43;;
81666;Laerm;71083;51.796;10.952;2023-09-12T08:34:02;68.46;48.84;79.86;;
81666;Laerm;71083;51.796;10.952;2023-09-12T08:36:28;70.15;48.16;81.42;;
81666;Laerm;71083;51.796;10.952;2023-09-12T08:38:53;67.50;43.86;85.55;;
81666;Laerm;71083;51.796;10.952;2023-09-12T08:41:18;65.78;47.48;72.47;;
81666;Laerm;71083;51.796;10.952;2023-09-12T08:43:44;65.83;47.85;75.38;;
81666;Laerm;71083;51.796;10.952;2023-09-12T08:46:09;65.27;48.17;74.09;;
81666;Laerm;71083;51.796;10.952;2023-09-12T08:48:35;67.79;52.31;78.07;;
81666;Laerm;71083;51.796;10.952;2023-09-12T08:51:02;66.78;52.02;76.68;;
81666;Laerm;71083;51.796;10.952;2023-09-12T08:53:29;68.05;48.58;78.14;;
81666;Laerm;71083;51.796;10.952;2023-09-12T08:55:54;67.20;49.87;74.92;;
81666;Laerm;71083;51.796;10.952;2023-09-12T08:58:20;65.92;42.16;73.71;;
81666;Laerm;71083;51.796;10.952;2023-09-12T09:00:45;69.55;55.95;80.81;;
81666;Laerm;71083;51.796;10.952;2023-09-12T09:03:11;67.40;55.11;76.55;;
81666;Laerm;71083;51.796;10.952;2023-09-12T09:05:37;65.39;50.89;73.35;;
81666;Laerm;71083;51.796;10.952;2023-09-12T09:08:04;67.50;46.61;78.27;;
81666;Laerm;71083;51.796;10.952;2023-09-12T09:10:29;68.56;49.16;79.71;;
81666;Laerm;71083;51.796;10.952;2023-09-12T09:12:57;66.41;51.27;72.91;;
81666;Laerm;71083;51.796;10.952;2023-09-12T09:15:26;66.34;49.49;72.89;;
81666;Laerm;71083;51.796;10.952;2023-09-12T09:17:52;66.43;43.48;81.30;;
81666;Laerm;71083;51.796;10.952;2023-09-12T09:20:36;68.11;55.71;76.36;;
81666;Laerm;71083;51.796;10.952;2023-09-12T09:23:03;66.86;50.40;76.28;;
81666;Laerm;71083;51.796;10.952;2023-09-12T09:25:32;65.56;46.09;73.69;;
81666;Laerm;71083;51.796;10.952;2023-09-12T09:27:57;65.85;43.25;75.03;;
81666;Laerm;71083;51.796;10.952;2023-09-12T09:30:41;66.13;43.18;73.47;;
81666;Laerm;71083;51.796;10.952;2023-09-12T09:33:07;66.40;47.74;73.12;;
81666;Laerm;71083;51.796;10.952;2023-09-12T09:35:32;67.64;53.00;78.83;;
81666;Laerm;71083;51.796;10.952;2023-09-12T09:37:58;66.90;53.20;77.53;;
81666;Laerm;71083;51.796;10.952;2023-09-12T09:40:24;66.46;47.05;74.02;;
81666;Laerm;71083;51.796;10.952;2023-09-12T09:42:53;68.40;44.04;80.35;;
81666;Laerm;71083;51.796;10.952;2023-09-12T09:45:18;66.97;45.98;73.32;;
81666;Laerm;71083;51.796;10.952;2023-09-12T09:47:44;67.50;57.23;74.90;;
81666;Laerm;71083;51.796;10.952;2023-09-12T09:50:13;67.68;53.13;75.73;;
81666;Laerm;71083;51.796;10.952;2023-09-12T09:52:39;66.51;50.38;76.15;;
81666;Laerm;71083;51.796;10.952;2023-09-12T09:55:06;67.72;49.38;80.33;;
81666;Laerm;71083;51.796;10.952;2023-09-12T09:57:36;68.38;48.49;83.71;;
81666;Laerm;71083;51.796;10.952;2023-09-12T10:00:01;69.62;54.31;85.59;;
81666;Laerm;71083;51.796;10.952;2023-09-12T10:02:33;66.97;51.77;78.04;;
81666;Laerm;71083;51.796;10.952;2023-09-12T10:05:00;68.56;50.49;85.96;;
81666;Laerm;71083;51.796;10.952;2023-09-12T10:07:29;67.59;53.41;78.37;;
81666;Laerm;71083;51.796;10.952;2023-09-12T10:09:57;67.28;51.05;74.65;;
81666;Laerm;71083;51.796;10.952;2023-09-12T10:12:23;68.04;43.94;80.90;;
81666;Laerm;71083;51.796;10.952;2023-09-12T10:14:49;67.44;50.98;77.68;;
81666;Laerm;71083;51.796;10.952;2023-09-12T10:17:14;68.07;51.68;77.66;;
81666;Laerm;71083;51.796;10.952;2023-09-12T10:19:51;67.56;49.37;76.74;;
81666;Laerm;71083;51.796;10.952;2023-09-12T10:22:29;68.19;49.49;76.43;;
81666;Laerm;71083;51.796;10.952;2023-09-12T10:24:55;66.28;41.04;74.43;;
81666;Laerm;71083;51.796;10.952;2023-09-12T10:27:21;66.54;45.94;73.95;;
81666;Laerm;71083;51.796;10.952;2023-09-12T10:29:47;66.97;51.60;75.97;;
81666;Laerm;71083;51.796;10.952;2023-09-12T10:32:14;67.34;49.48;76.68;;
81666;Laerm;71083;51.796;10.952;2023-09-12T10:34:42;66.65;44.61;74.21;;
81666;Laerm;71083;51.796;10.952;2023-09-12T10:37:10;70.08;47.87;82.63;;
81666;Laerm;71083;51.796;10.952;2023-09-12T10:39:37;66.95;49.16;73.79;;
81666;Laerm;71083;51.796;10.952;2023-09-12T10:42:04;64.80;51.13;72.30;;
81666;Laerm;71083;51.796;10.952;2023-09-12T10:44:30;66.15;43.61;73.30;;
81666;Laerm;71083;51.796;10.952;2023-09-12T10:46:56;69.21;55.83;80.73;;
81666;Laerm;71083;51.796;10.952;2023-09-12T10:49:22;65.92;42.11;75.30;;
81666;Laerm;71083;51.796;10.952;2023-09-12T10:51:48;68.17;48.98;79.78;;
81666;Laerm;71083;51.796;10.952;2023-09-12T10:54:16;67.77;50.37;79.93;;
81666;Laerm;71083;51.796;10.952;2023-09-12T10:56:41;68.61;47.01;83.43;;
81666;Laerm;71083;51.796;10.952;2023-09-12T11:01:36;67.48;45.02;80.85;;
81666;Laerm;71083;51.796;10.952;2023-09-12T11:06:44;67.66;50.82;77.33;;
81666;Laerm;71083;51.796;10.952;2023-09-12T11:09:22;67.63;45.17;78.39;;
81666;Laerm;71083;51.796;10.952;2023-09-12T11:11:55;65.93;50.77;74.95;;
81666;Laerm;71083;51.796;10.952;2023-09-12T11:14:20;66.81;50.52;73.88;;
81666;Laerm;71083;51.796;10.952;2023-09-12T11:19:29;67.70;46.55;79.45;;
81666;Laerm;71083;51.796;10.952;2023-09-12T11:22:20;66.12;44.35;72.66;;
81666;Laerm;71083;51.796;10.952;2023-09-12T11:24:45;69.68;49.54;88.43;;
81666;Laerm;71083;51.796;10.952;2023-09-12T11:27:12;66.41;49.31;75.79;;
81666;Laerm;71083;51.796;10.952;2023-09-12T11:29:38;66.28;50.70;77.04;;
81666;Laerm;71083;51.796;10.952;2023-09-12T11:32:04;67.40;46.10;77.21;;
81666;Laerm;71083;51.796;10.952;2023-09-12T11:34:35;65.95;49.89;84.41;;
81666;Laerm;71083;51.796;10.952;2023-09-12T11:37:01;65.75;50.61;74.16;;
81666;Laerm;71083;51.796;10.952;2023-09-12T11:39:32;67.06;50.34;85.26;;
81666;Laerm;71083;51.796;10.952;2023-09-12T11:41:58;67.08;50.91;77.00;;
81666;Laerm;71083;51.796;10.952;2023-09-12T11:44:24;66.22;44.95;76.90;;
81666;Laerm;71083;51.796;10.952;2023-09-12T11:46:51;67.92;54.33;85.73;;
81666;Laerm;71083;51.796;10.952;2023-09-12T11:49:17;68.22;55.20;79.63;;
81666;Laerm;71083;51.796;10.952;2023-09-12T11:51:46;68.70;48.69;77.98;;
81666;Laerm;71083;51.796;10.952;2023-09-12T11:54:13;67.95;45.27;76.79;;
81666;Laerm;71083;51.796;10.952;2023-09-12T11:56:39;66.97;45.07;79.04;;
81666;Laerm;71083;51.796;10.952;2023-09-12T11:59:04;65.73;44.22;72.64;;
81666;Laerm;71083;51.796;10.952;2023-09-12T12:01:31;66.72;44.15;77.28;;
81666;Laerm;71083;51.796;10.952;2023-09-12T12:03:57;66.92;44.06;75.37;;
81666;Laerm;71083;51.796;10.952;2023-09-12T12:06:22;70.41;57.25;92.96;;
81666;Laerm;71083;51.796;10.952;2023-09-12T12:08:48;66.64;44.95;79.28;;
81666;Laerm;71083;51.796;10.952;2023-09-12T12:11:13;67.66;48.76;80.75;;
81666;Laerm;71083;51.796;10.952;2023-09-12T12:13:39;67.14;46.77;77.04;;
81666;Laerm;71083;51.796;10.952;2023-09-12T12:16:16;67.82;46.16;78.09;;
81666;Laerm;71083;51.796;10.952;2023-09-12T12:18:42;66.31;52.46;75.86;;
81666;Laerm;71083;51.796;10.952;2023-09-12T12:21:07;67.18;55.19;74.92;;
81666;Laerm;71083;51.796;10.952;2023-09-12T12:23:33;69.45;51.76;87.15;;
81666;Laerm;71083;51.796;10.952;2023-09-12T12:26:02;68.61;52.55;76.62;;
81666;Laerm;71083;51.796;10.952;2023-09-12T12:28:28;67.90;53.12;75.07;;
81666;Laerm;71083;51.796;10.952;2023-09-12T12:30:53;66.57;48.46;74.34;;
81666;Laerm;71083;51.796;10.952;2023-09-12T12:33:19;67.44;50.49;73.68;;
81666;Laerm;71083;51.796;10.952;2023-09-12T12:35:45;68.89;52.61;82.51;;
81666;Laerm;71083;51.796;10.952;2023-09-12T12:38:11;67.55;49.22;76.50;;
81666;Laerm;71083;51.796;10.952;2023-09-12T12:40:37;67.39;46.91;77.40;;
81666;Laerm;71083;51.796;10.952;2023-09-12T12:43:03;67.79;45.17;78.55;;
81666;Laerm;71083;51.796;10.952;2023-09-12T12:45:28;68.06;58.55;74.22;;
81666;Laerm;71083;51.796;10.952;2023-09-12T12:47:56;67.25;46.07;79.53;;
81666;Laerm;71083;51.796;10.952;2023-09-12T12:50:22;67.68;49.12;74.44;;
81666;Laerm;71083;51.796;10.952;2023-09-12T12:52:48;67.04;53.24;74.36;;
81666;Laerm;71083;51.796;10.952;2023-09-12T12:55:14;67.34;52.13;75.35;;
81666;Laerm;71083;51.796;10.952;2023-09-12T12:57:42;67.07;43.79;73.55;;
81666;Laerm;71083;51.796;10.952;2023-09-12T13:00:08;68.67;47.92;79.28;;
81666;Laerm;71083;51.796;10.952;2023-09-12T13:02:36;68.46;56.24;76.02;;
81666;Laerm;71083;51.796;10.952;2023-09-12T13:05:01;68.15;50.80;77.44;;
81666;Laerm;71083;51.796;10.952;2023-09-12T13:07:27;67.13;53.29;76.75;;
81666;Laerm;71083;51.796;10.952;2023-09-12T13:09:52;68.57;53.06;77.10;;
81666;Laerm;71083;51.796;10.952;2023-09-12T13:12:17;67.40;46.42;73.70;;
81666;Laerm;71083;51.796;10.952;2023-09-12T13:14:43;67.43;46.26;75.34;;
81666;Laerm;71083;51.796;10.952;2023-09-12T13:17:09;76.06;48.89;95.63;;
81666;Laerm;71083;51.796;10.952;2023-09-12T13:19:34;67.13;48.20;81.27;;
81666;Laerm;71083;51.796;10.952;2023-09-12T13:22:00;68.24;55.39;73.98;;
81666;Laerm;71083;51.796;10.952;2023-09-12T13:24:25;67.48;44.61;79.57;;
81666;Laerm;71083;51.796;10.952;2023-09-12T13:26:51;67.78;51.06;74.20;;
81666;Laerm;71083;51.796;10.952;2023-09-12T13:29:16;65.67;48.84;77.83;;
81666;Laerm;71083;51.796;10.952;2023-09-12T13:31:42;68.38;52.03;76.01;;
81666;Laerm;71083;51.796;10.952;2023-09-12T13:34:07;69.59;57.65;80.40;;
81666;Laerm;71083;51.796;10.952;2023-09-12T13:36:32;67.86;49.34;76.57;;
81666;Laerm;71083;51.796;10.952;2023-09-12T13:38:58;67.65;52.79;79.85;;
81666;Laerm;71083;51.796;10.952;2023-09-12T13:41:23;67.20;52.24;73.71;;
81666;Laerm;71083;51.796;10.952;2023-09-12T13:43:50;67.42;52.25;76.53;;